createdAt,value
2023-04-03T00:01:22.563Z,4.30
2023-04-03T00:03:49.825Z,4.40
2023-04-03T00:06:16.919Z,4.30
2023-04-03T00:08:44.011Z,4.20
2023-04-03T00:11:11.615Z,4.30
2023-04-03T00:13:39.884Z,4.20
2023-04-03T00:16:08.924Z,4.10
2023-04-03T00:18:36.747Z,4.10
2023-04-03T00:21:05.042Z,4.00
2023-04-03T00:23:32.216Z,4.10
2023-04-03T00:25:59.336Z,4.00
2023-04-03T00:28:26.602Z,4.10
2023-04-03T00:30:53.953Z,4.00
2023-04-03T00:33:25.649Z,3.90
2023-04-03T00:35:52.971Z,3.90
2023-04-03T00:38:20.196Z,3.90
2023-04-03T00:40:49.417Z,4.00
2023-04-03T00:43:27.525Z,4.00
2023-04-03T00:45:59.165Z,4.00
2023-04-03T00:48:37.811Z,4.00
2023-04-03T00:51:08.742Z,3.90
2023-04-03T00:53:41.969Z,3.90
2023-04-03T00:56:13.861Z,3.90
2023-04-03T00:59:24.202Z,3.90
2023-04-03T01:01:52.056Z,3.90
2023-04-03T01:04:38.131Z,3.80
2023-04-03T01:07:18.210Z,3.70
2023-04-03T01:09:46.862Z,3.70
2023-04-03T01:12:25.990Z,3.90
2023-04-03T01:14:56.844Z,3.90
2023-04-03T01:17:34.328Z,3.90
2023-04-03T01:20:46.862Z,3.80
2023-04-03T01:23:39.110Z,3.70
2023-04-03T01:26:06.500Z,3.70
2023-04-03T01:28:36.307Z,3.70
2023-04-03T01:31:17.218Z,3.60
2023-04-03T01:33:45.320Z,3.80
2023-04-03T01:36:25.309Z,3.80
2023-04-03T01:38:54.402Z,3.70
2023-04-03T01:41:22.347Z,3.70
2023-04-03T01:43:50.945Z,3.70
2023-04-03T01:46:19.608Z,3.60
2023-04-03T01:48:46.900Z,3.60
2023-04-03T01:51:14.286Z,3.60
2023-04-03T01:53:41.497Z,3.60
2023-04-03T01:56:08.715Z,3.60
2023-04-03T01:58:36.115Z,3.60
2023-04-03T02:01:03.599Z,3.50
2023-04-03T02:03:30.913Z,3.50
2023-04-03T02:05:58.295Z,3.50
2023-04-03T02:08:25.595Z,3.40
2023-04-03T02:10:52.970Z,3.30
2023-04-03T02:13:20.819Z,3.30
2023-04-03T02:15:48.815Z,3.30
2023-04-03T02:18:16.651Z,3.30
2023-04-03T02:20:43.846Z,3.20
2023-04-03T02:23:11.259Z,3.20
2023-04-03T02:25:38.934Z,3.20
2023-04-03T02:28:07.015Z,3.20
2023-04-03T02:30:34.584Z,3.20
2023-04-03T02:33:01.951Z,3.20
2023-04-03T02:35:29.108Z,3.20
2023-04-03T02:37:56.873Z,3.20
2023-04-03T02:40:23.938Z,3.10
2023-04-03T02:42:51.190Z,3.10
2023-04-03T02:45:18.378Z,3.10
2023-04-03T02:47:45.540Z,3.10
2023-04-03T02:50:12.723Z,3.00
2023-04-03T02:52:39.849Z,3.00
2023-04-03T02:55:07.893Z,2.90
2023-04-03T02:57:35.040Z,2.90
2023-04-03T03:00:02.515Z,2.70
2023-04-03T03:02:29.651Z,2.80
2023-04-03T03:04:56.857Z,2.80
2023-04-03T03:07:24.074Z,2.80
2023-04-03T03:09:51.790Z,2.80
2023-04-03T03:12:22.809Z,2.80
2023-04-03T03:14:50.654Z,2.70
2023-04-03T03:17:18.175Z,2.80
2023-04-03T03:19:46.859Z,2.80
2023-04-03T03:22:13.983Z,2.70
2023-04-03T03:24:41.304Z,2.70
2023-04-03T03:27:08.372Z,2.50
2023-04-03T03:29:35.493Z,2.50
2023-04-03T03:32:02.609Z,2.60
2023-04-03T03:34:29.700Z,2.60
2023-04-03T03:36:56.869Z,2.70
2023-04-03T03:39:23.985Z,2.60
2023-04-03T03:41:51.640Z,2.70
2023-04-03T03:44:18.782Z,2.60
2023-04-03T05:03:08.333Z,2.30
2023-04-03T05:05:36.915Z,2.20
2023-04-03T05:08:05.017Z,2.20
2023-04-03T05:10:32.757Z,2.20
2023-04-03T05:12:59.938Z,2.20
2023-04-03T05:15:27.332Z,2.30
2023-04-03T05:17:54.559Z,2.30
2023-04-03T05:20:21.775Z,2.20
2023-04-03T05:22:48.866Z,2.20
2023-04-03T05:25:16.172Z,2.20
2023-04-03T05:27:43.319Z,2.20
2023-04-03T05:30:11.233Z,2.20
2023-04-03T05:32:38.398Z,2.10
2023-04-03T05:35:06.974Z,2.00
2023-04-03T05:37:34.679Z,2.10
2023-04-03T05:40:02.255Z,2.10
2023-04-03T05:42:29.496Z,2.20
2023-04-03T05:44:56.787Z,2.20
2023-04-03T05:47:23.975Z,2.20
2023-04-03T05:49:51.669Z,2.20
2023-04-03T05:52:32.638Z,2.20
2023-04-03T05:54:59.776Z,2.20
2023-04-03T05:57:27.009Z,2.30
2023-04-03T05:59:54.301Z,2.20
2023-04-03T06:02:24.124Z,2.20
2023-04-03T06:04:51.828Z,2.30
2023-04-03T06:07:23.885Z,2.30
2023-04-03T06:09:54.254Z,2.30
2023-04-03T06:12:22.162Z,2.30
2023-04-03T06:14:49.781Z,2.30
2023-04-03T06:17:19.124Z,2.30
2023-04-03T06:19:47.064Z,2.40
2023-04-03T06:22:15.033Z,2.40
2023-04-03T06:24:42.807Z,2.30
2023-04-03T06:27:12.494Z,2.30
2023-04-03T06:29:39.690Z,2.40
2023-04-03T06:32:07.308Z,2.30
2023-04-03T06:34:34.759Z,2.40
2023-04-03T06:37:01.826Z,2.40
2023-04-03T06:39:29.094Z,2.40
2023-04-03T06:41:56.483Z,2.40
2023-04-03T06:44:25.089Z,2.50
2023-04-03T06:46:53.006Z,2.50
2023-04-03T06:49:20.126Z,2.60
2023-04-03T06:51:47.229Z,2.60
2023-04-03T06:54:15.905Z,2.60
2023-04-03T06:56:42.989Z,2.60
2023-04-03T06:59:11.832Z,2.70
2023-04-03T07:01:38.930Z,2.70
2023-04-03T07:04:06.799Z,2.80
2023-04-03T07:06:34.786Z,3.00
2023-04-03T07:09:02.346Z,3.10
2023-04-03T07:11:29.589Z,3.30
2023-04-03T07:13:57.753Z,3.40
2023-04-03T07:16:25.150Z,3.60
2023-04-03T07:18:52.297Z,3.90
2023-04-03T07:21:19.667Z,4.10
2023-04-03T07:23:46.855Z,4.50
2023-04-03T07:26:14.024Z,4.80
2023-04-03T07:28:42.534Z,5.10
2023-04-03T07:31:14.676Z,5.30
2023-04-03T07:33:42.732Z,5.50
2023-04-03T07:36:12.513Z,5.70
2023-04-03T07:38:39.903Z,5.80
2023-04-03T07:41:08.201Z,6.10
2023-04-03T07:43:35.954Z,6.10
2023-04-03T07:46:04.101Z,6.10
2023-04-03T07:48:31.369Z,6.30
2023-04-03T07:51:02.791Z,6.70
2023-04-03T07:53:29.874Z,6.80
2023-04-03T07:55:59.284Z,6.80
2023-04-03T07:58:26.865Z,7.10
2023-04-03T08:00:54.226Z,7.00
2023-04-03T08:03:22.327Z,7.10
2023-04-03T08:05:51.008Z,7.20
2023-04-03T08:08:22.485Z,7.20
2023-04-03T08:10:54.260Z,7.00
2023-04-03T08:13:22.039Z,7.30
2023-04-03T08:15:49.594Z,7.40
2023-04-03T08:18:17.790Z,7.70
2023-04-03T08:20:45.319Z,7.90
2023-04-03T08:23:12.775Z,7.90
2023-04-03T08:25:42.279Z,7.90
2023-04-03T08:28:13.213Z,7.80
2023-04-03T08:30:43.513Z,7.50
2023-04-03T08:33:11.537Z,7.80
2023-04-03T08:35:43.034Z,8.10
2023-04-03T08:38:11.262Z,8.00
2023-04-03T08:40:39.223Z,7.90
2023-04-03T08:43:45.977Z,8.20
2023-04-03T08:46:16.595Z,8.30
2023-04-03T08:48:44.685Z,8.60
2023-04-03T08:51:16.970Z,8.50
2023-04-03T08:54:01.416Z,8.40
2023-04-03T08:56:28.839Z,8.50
2023-04-03T08:59:12.253Z,8.30
2023-04-03T09:01:43.044Z,8.40
2023-04-03T09:04:21.052Z,8.60
2023-04-03T09:07:00.128Z,8.70
2023-04-03T09:09:43.490Z,8.50
2023-04-03T09:12:51.264Z,8.60
2023-04-03T09:15:37.633Z,8.40
2023-04-03T09:18:21.364Z,8.50
2023-04-03T09:21:18.955Z,8.80
2023-04-03T09:23:53.930Z,8.80
2023-04-03T09:26:44.847Z,8.80
2023-04-03T09:29:21.892Z,8.80
2023-04-03T09:31:52.231Z,8.70
2023-04-03T09:34:31.810Z,8.70
2023-04-03T09:37:07.345Z,8.40
2023-04-03T09:39:52.022Z,8.40
2023-04-03T09:42:26.521Z,8.60
2023-04-03T09:45:05.600Z,8.40
2023-04-03T09:47:37.690Z,8.90
2023-04-03T09:50:22.499Z,8.80
2023-04-03T09:52:53.085Z,8.60
2023-04-03T09:55:30.566Z,8.70
2023-04-03T09:58:03.269Z,8.80
2023-04-03T10:00:38.683Z,8.80
2023-04-03T10:03:12.175Z,8.70
2023-04-03T10:05:42.668Z,8.90
2023-04-03T10:08:15.242Z,8.90
2023-04-03T10:10:45.830Z,9.00
2023-04-03T10:13:24.902Z,9.00
2023-04-03T10:16:08.893Z,9.00
2023-04-03T10:18:44.673Z,9.00
2023-04-03T10:21:28.629Z,9.10
2023-04-03T10:24:22.145Z,9.20
2023-04-03T10:27:14.865Z,9.30
2023-04-03T10:29:55.160Z,9.30
2023-04-03T10:33:01.419Z,9.50
2023-04-03T10:35:50.091Z,9.40
2023-04-03T10:38:44.889Z,9.40
2023-04-03T10:41:41.774Z,9.50
2023-04-03T10:44:43.018Z,9.80
2023-04-03T10:47:44.674Z,9.70
2023-04-03T10:50:33.165Z,9.80
2023-04-03T10:53:33.802Z,9.90
2023-04-03T10:56:03.651Z,9.80
2023-04-03T10:58:41.803Z,9.70
2023-04-03T11:01:21.882Z,10.10
2023-04-03T11:03:55.133Z,9.90
2023-04-03T11:06:27.963Z,10.30
2023-04-03T11:08:59.938Z,10.30
2023-04-03T11:11:36.456Z,10.10
2023-04-03T11:14:31.515Z,9.90
2023-04-03T11:17:24.655Z,10.20
2023-04-03T11:19:51.667Z,10.30
2023-04-03T11:22:36.033Z,10.30
2023-04-03T11:25:12.661Z,10.30
2023-04-03T11:28:03.315Z,10.50
2023-04-03T11:31:00.505Z,10.40
2023-04-03T11:34:13.982Z,10.30
2023-04-03T11:36:48.248Z,10.40
2023-04-03T11:39:26.234Z,10.40
2023-04-03T11:42:06.735Z,10.60
2023-04-03T11:44:39.544Z,10.30
2023-04-03T11:47:11.491Z,10.20
2023-04-03T11:50:04.755Z,10.20
2023-04-03T11:52:44.134Z,10.40
2023-04-03T11:55:32.616Z,10.30
2023-04-03T11:57:59.585Z,10.30
2023-04-03T12:00:45.428Z,10.30
2023-04-03T12:03:31.081Z,10.70
2023-04-03T12:06:07.404Z,10.70
2023-04-03T12:08:34.409Z,10.50
2023-04-03T12:11:10.732Z,10.70
2023-04-03T12:13:56.258Z,10.70
2023-04-03T12:16:30.625Z,10.70
2023-04-03T12:19:17.273Z,10.60
2023-04-03T12:21:50.014Z,10.90
2023-04-03T12:24:17.238Z,10.80
2023-04-03T12:27:02.924Z,10.90
2023-04-03T12:29:35.653Z,11.10
2023-04-03T12:33:09.769Z,11.30
2023-04-03T12:35:55.657Z,11.10
2023-04-03T12:39:04.451Z,10.90
2023-04-03T12:41:53.550Z,10.90
2023-04-03T12:44:28.479Z,11.00
2023-04-03T12:46:55.785Z,11.10
2023-04-03T12:49:34.687Z,11.10
2023-04-03T12:52:03.056Z,11.10
2023-04-03T12:54:43.644Z,11.10
2023-04-03T12:57:12.982Z,11.20
2023-04-03T12:59:41.353Z,11.20
2023-04-03T13:02:38.655Z,11.30
2023-04-03T13:05:14.495Z,11.40
2023-04-03T13:07:43.264Z,11.30
2023-04-03T13:10:10.243Z,11.20
2023-04-03T13:12:58.957Z,11.40
2023-04-03T13:15:52.597Z,11.20
2023-04-03T13:18:34.889Z,11.10
2023-04-03T13:21:16.673Z,11.20
2023-04-03T13:23:50.168Z,11.20
2023-04-03T13:26:21.948Z,11.30
2023-04-03T13:28:51.161Z,11.40
2023-04-03T13:31:36.087Z,11.30
2023-04-03T13:34:17.512Z,11.40
2023-04-03T13:36:59.424Z,11.30
2023-04-03T13:39:31.463Z,11.20
2023-04-03T13:42:03.928Z,11.30
2023-04-03T13:44:36.430Z,11.40
2023-04-03T13:47:24.128Z,11.30
2023-04-03T13:50:14.650Z,11.40
2023-04-03T13:52:51.664Z,11.20
2023-04-03T13:55:33.544Z,11.10
2023-04-03T13:58:04.840Z,11.20
2023-04-03T14:01:21.376Z,11.10
2023-04-03T14:04:02.093Z,11.10
2023-04-03T14:06:30.230Z,11.10
2023-04-03T14:08:57.375Z,11.00
2023-04-03T14:11:29.783Z,11.10
2023-04-03T14:14:01.672Z,11.20
2023-04-03T14:16:32.688Z,11.30
2023-04-03T14:19:02.620Z,11.20
2023-04-03T14:21:29.888Z,11.20
2023-04-03T14:23:57.708Z,11.20
2023-04-03T14:26:27.694Z,11.30
2023-04-03T14:28:56.828Z,11.30
2023-04-03T14:31:25.263Z,11.10
2023-04-03T14:33:52.663Z,11.00
2023-04-03T14:36:24.788Z,10.90
2023-04-03T14:38:53.128Z,11.00
2023-04-03T14:41:23.744Z,11.00
2023-04-03T14:43:52.081Z,11.00
2023-04-03T14:46:43.115Z,11.00
2023-04-03T14:49:29.252Z,10.80
2023-04-03T14:51:58.506Z,10.80
2023-04-03T14:54:30.254Z,10.90
2023-04-03T14:56:59.234Z,10.90
2023-04-03T14:59:27.073Z,10.90
2023-04-03T15:01:54.256Z,11.00
2023-04-03T15:04:22.512Z,10.80
2023-04-03T15:06:50.897Z,10.80
2023-04-03T15:09:26.056Z,10.70
2023-04-03T15:11:54.997Z,10.70
2023-04-03T15:16:52.680Z,10.70
2023-04-03T15:19:19.796Z,10.80
2023-04-03T15:21:46.894Z,10.80
2023-04-03T15:24:14.054Z,10.70
2023-04-03T15:26:41.176Z,10.70
2023-04-03T15:29:08.472Z,10.70
2023-04-03T15:31:35.738Z,10.80
2023-04-03T15:34:03.779Z,10.60
2023-04-03T15:36:34.566Z,10.60
2023-04-03T15:39:02.394Z,10.60
2023-04-03T15:41:29.521Z,10.60
2023-04-03T15:43:56.700Z,10.40
2023-04-03T15:46:23.886Z,10.30
2023-04-03T15:48:51.225Z,10.30
2023-04-03T15:51:18.338Z,10.30
2023-04-03T15:53:45.640Z,10.20
2023-04-03T15:56:13.069Z,10.10
2023-04-03T15:58:41.378Z,10.20
2023-04-03T16:01:10.984Z,10.10
2023-04-03T16:03:40.217Z,10.10
2023-04-03T16:06:07.327Z,10.10
2023-04-03T16:08:34.530Z,10.10
2023-04-03T16:11:01.840Z,10.10
2023-04-03T16:13:28.969Z,10.10
2023-04-03T16:15:56.799Z,10.10
2023-04-03T16:18:24.031Z,10.00
2023-04-03T16:20:51.871Z,10.00
2023-04-03T16:23:19.807Z,10.10
2023-04-03T16:25:48.024Z,10.10
2023-04-03T16:28:15.767Z,10.00
2023-04-03T16:30:43.179Z,9.90
2023-04-03T16:33:11.686Z,9.90
2023-04-03T16:35:39.177Z,9.90
2023-04-03T16:38:06.739Z,9.90
2023-04-03T16:40:34.987Z,9.70
2023-04-03T16:43:03.082Z,9.70
2023-04-03T16:45:30.172Z,9.70
2023-04-03T16:47:57.381Z,9.60
2023-04-03T16:50:25.092Z,9.60
2023-04-03T16:52:52.181Z,9.60
2023-04-03T16:55:19.562Z,9.50
2023-04-03T16:57:46.680Z,9.50
2023-04-03T17:00:15.868Z,9.40
2023-04-03T17:02:43.029Z,9.40
2023-04-03T17:05:10.205Z,9.40
2023-04-03T17:07:37.382Z,9.20
2023-04-03T17:10:04.834Z,9.20
2023-04-03T17:12:32.100Z,9.20
2023-04-03T17:14:59.262Z,9.10
2023-04-03T17:17:27.259Z,9.10
2023-04-03T17:19:56.045Z,9.00
2023-04-03T17:22:23.613Z,9.10
2023-04-03T17:24:51.169Z,9.00
2023-04-03T17:27:18.481Z,9.00
2023-04-03T17:29:45.675Z,9.00
2023-04-03T17:32:12.791Z,9.00
2023-04-03T17:34:40.353Z,8.90
2023-04-03T17:37:07.927Z,8.80
2023-04-03T17:39:37.136Z,8.80
2023-04-03T17:42:04.377Z,8.70
2023-04-03T17:44:31.528Z,8.60
2023-04-03T17:46:58.695Z,8.60
2023-04-03T17:49:25.842Z,8.60
2023-04-03T17:51:53.946Z,8.60
2023-04-03T17:54:21.488Z,8.60
2023-04-03T17:56:48.730Z,8.50
2023-04-03T17:59:17.103Z,8.40
2023-04-03T18:01:47.702Z,8.30
2023-04-03T18:04:15.378Z,8.20
2023-04-03T18:06:47.026Z,8.20
2023-04-03T18:09:19.076Z,8.20
2023-04-03T18:11:47.226Z,8.10
2023-04-03T18:14:20.820Z,8.10
2023-04-03T18:16:48.096Z,8.10
2023-04-03T18:21:48.010Z,8.10
2023-04-03T18:24:17.687Z,8.00
2023-04-03T18:26:47.752Z,7.90
2023-04-03T18:29:16.342Z,7.90
2023-04-03T18:31:48.869Z,7.80
2023-04-03T18:34:16.006Z,7.70
2023-04-03T18:36:43.149Z,7.70
2023-04-03T18:39:10.371Z,7.70
2023-04-03T18:41:38.283Z,7.60
2023-04-03T18:44:12.246Z,7.60
2023-04-03T18:46:39.828Z,7.40
2023-04-03T18:49:07.052Z,7.40
2023-04-03T18:51:34.236Z,7.50
2023-04-03T18:54:02.212Z,7.40
2023-04-03T18:56:30.504Z,7.40
2023-04-03T18:58:57.598Z,7.30
2023-04-03T19:01:25.276Z,7.20
2023-04-03T19:03:52.534Z,7.20
2023-04-03T19:06:19.889Z,7.30
2023-04-03T19:08:47.434Z,7.30
2023-04-03T19:11:14.504Z,7.30
2023-04-03T19:13:51.794Z,7.20
2023-04-03T19:16:28.688Z,7.20
2023-04-03T19:18:55.835Z,7.20
2023-04-03T19:21:22.858Z,7.10
2023-04-03T19:23:49.905Z,7.00
2023-04-03T19:26:16.901Z,7.00
2023-04-03T19:28:44.323Z,6.90
2023-04-03T19:31:16.473Z,6.90
2023-04-03T19:33:44.194Z,6.90
2023-04-03T19:36:11.720Z,6.80
2023-04-03T19:38:39.115Z,6.70
2023-04-03T19:41:12.247Z,6.80
2023-04-03T19:43:39.806Z,6.70
2023-04-03T19:46:08.529Z,6.70
2023-04-03T19:48:36.428Z,6.70
2023-04-03T19:51:04.856Z,6.70
2023-04-03T19:53:32.361Z,6.60
2023-04-03T19:55:59.485Z,6.60
2023-04-03T19:58:32.975Z,6.60
2023-04-03T20:01:00.192Z,6.60
2023-04-03T20:03:27.368Z,6.50
2023-04-03T20:05:55.572Z,6.30
2023-04-03T20:08:23.213Z,6.10
2023-04-03T20:10:50.913Z,5.90
2023-04-03T20:13:18.076Z,6.10
2023-04-03T20:15:45.854Z,6.10
2023-04-03T20:18:19.382Z,6.00
2023-04-03T20:21:01.896Z,6.00
2023-04-03T20:23:30.229Z,5.90
2023-04-03T20:26:09.222Z,6.00
2023-04-03T20:28:38.751Z,6.10
2023-04-03T20:31:09.361Z,6.10
2023-04-03T20:33:37.388Z,6.00
2023-04-03T20:36:04.630Z,6.00
2023-04-03T20:38:31.792Z,6.00
2023-04-03T20:41:00.396Z,5.90
2023-04-03T20:43:28.604Z,5.90
2023-04-03T20:45:55.836Z,5.80
2023-04-03T20:48:23.938Z,5.80
2023-04-03T20:50:52.143Z,5.80
2023-04-03T20:53:19.715Z,5.70
2023-04-03T20:56:01.189Z,5.80
2023-04-03T20:58:33.484Z,5.80
2023-04-03T21:01:01.299Z,5.80
2023-04-03T21:03:33.233Z,5.70
2023-04-03T21:06:00.611Z,5.60
2023-04-03T21:09:05.627Z,5.50
2023-04-03T21:12:10.233Z,5.50
2023-04-03T21:15:14.867Z,5.50
2023-04-03T21:18:14.677Z,5.50
2023-04-03T21:20:43.721Z,5.40
2023-04-03T21:23:12.060Z,5.20
2023-04-03T21:25:39.167Z,5.20
2023-04-03T21:28:06.174Z,5.10
2023-04-03T21:30:33.228Z,5.20
2023-04-03T21:33:00.378Z,5.20
2023-04-03T21:35:27.423Z,5.30
2023-04-03T21:37:54.832Z,5.30
2023-04-03T21:40:21.843Z,5.20
2023-04-03T21:42:54.457Z,5.10
2023-04-03T21:45:25.429Z,5.10
2023-04-03T21:47:52.972Z,5.00
2023-04-03T21:50:20.171Z,4.90
2023-04-03T21:52:47.362Z,4.90
2023-04-03T21:55:15.574Z,4.90
2023-04-03T21:57:42.772Z,4.90
2023-04-03T22:00:11.139Z,4.90
2023-04-03T22:02:41.658Z,4.80
2023-04-03T22:05:08.762Z,4.80
2023-04-03T22:07:35.955Z,4.80
2023-04-03T22:10:03.063Z,4.70
2023-04-03T22:12:30.230Z,4.70
2023-04-03T22:14:57.352Z,4.70
2023-04-03T22:17:29.070Z,4.70
2023-04-03T22:19:56.447Z,4.70
2023-04-03T22:22:24.988Z,4.70
2023-04-03T22:24:52.503Z,4.70
2023-04-03T22:27:19.631Z,4.60
2023-04-03T22:29:46.735Z,4.60
2023-04-03T22:32:13.986Z,4.60
2023-04-03T22:34:41.375Z,4.60
2023-04-03T22:37:08.557Z,4.50
2023-04-03T22:39:36.116Z,4.50
2023-04-03T22:42:03.243Z,4.40
2023-04-03T22:44:36.104Z,4.50
2023-04-03T22:47:03.775Z,4.50
2023-04-03T22:49:32.239Z,4.50
2023-04-03T22:51:59.651Z,4.50
2023-04-03T22:54:26.724Z,4.50
2023-04-03T22:56:53.805Z,4.50
2023-04-03T22:59:21.253Z,4.50
2023-04-03T23:01:48.824Z,4.50
2023-04-03T23:04:16.598Z,4.50
2023-04-03T23:06:43.832Z,4.50
2023-04-03T23:09:11.285Z,4.40
2023-04-03T23:11:38.375Z,4.40
2023-04-03T23:14:05.692Z,4.30
2023-04-03T23:16:33.016Z,4.30
2023-04-03T23:19:00.870Z,4.30
2023-04-03T23:21:28.158Z,4.20
2023-04-03T23:23:55.771Z,4.20
2023-04-03T23:26:24.055Z,4.20
2023-04-03T23:28:51.538Z,4.20
2023-04-03T23:31:19.064Z,4.20
2023-04-03T23:33:46.665Z,4.00
2023-04-03T23:36:16.017Z,4.00
2023-04-03T23:38:43.492Z,4.10
2023-04-03T23:41:10.566Z,4.00
2023-04-03T23:43:37.730Z,4.00
2023-04-03T23:46:04.826Z,4.00
2023-04-03T23:48:31.918Z,4.00
2023-04-03T23:50:59.000Z,4.00
2023-04-03T23:53:26.038Z,3.90
2023-04-03T23:55:53.271Z,3.90
2023-04-03T23:58:20.899Z,3.90
